San Antonio North's Hourly Summary for Monday, May 14, 2018
Hour Temp
(f)
RH
(%)
Solar Rad.
(MJ/m2)
Rainfall
(in)
Wind
(mph)
5/14/2018 12:00 AM 76 72 0 0 1.63
5/14/2018 1:00 AM 74 77 0 0 1.1
5/14/2018 2:00 AM 74 80 0 0 1.2
5/14/2018 3:00 AM 74 82 0 0 1.31
5/14/2018 4:00 AM 73 83 0 0 1.06
5/14/2018 5:00 AM 73 84 0 0 0.87
5/14/2018 6:00 AM 74 84 0 0 0.76
5/14/2018 7:00 AM 74 83 0 0 0.71
5/14/2018 8:00 AM 74 83 0.09 0 0.61
5/14/2018 9:00 AM 75 76 0.55 0 0.83
5/14/2018 10:00 AM 77 72 0.8 0 0.89
5/14/2018 11:00 AM 79 65 1.21 0 1.06
5/14/2018 12:00 PM 83 55 2.08 0 1.17
5/14/2018 1:00 PM 84 49 2.45 0 1.78
5/14/2018 2:00 PM 86 47 2.41 0 1.95
5/14/2018 3:00 PM 88 44 2.97 0 1.92
5/14/2018 4:00 PM 89 40 2.72 0 2.16
5/14/2018 5:00 PM 91 38 2.19 0 1.63
5/14/2018 6:00 PM 89 40 1.37 0 2.3
5/14/2018 7:00 PM 87 43 0.57 0 1.46
5/14/2018 8:00 PM 86 44 0.2 0 1.29
5/14/2018 9:00 PM 83 49 0.01 0 2.04
5/14/2018 10:00 PM 81 52 0 0 1.56
5/14/2018 11:00 PM 78 56 0 0 0.86
Data Summary 80 62 19.62 0.00 1.34